• Join FlightAware (Why Join?)
  • Login
  • US Flag 
02:16AM EDT


 

Airport Tracker/Info


-or-


 

Live Flight TrackerFlight Track Log ✈ FLG3729 ✈ 07-May-2013 ✈ KALB - KDTW

Flight Track Log - Related Links

Times and Time Zones

All times are in EDT time to prevent confusion due to time zone crossing. See the FLG3729 flight status page for this flight to view local times or setup timezone preferences in your user account.

Time Position Orientation Groundspeed Altitude Reporting Facility
EDT Latitude Longitude Course Direction KTS MPH feet Rate Location/Type
05:50AM 42.7297 -73.8081 283° West 144 166 1,500  Level Boston Center
05:51AM 42.6714 -73.8208 189° South 230 265 4,100 2,160 Climbing Boston Center
05:52AM 42.6911 -73.8947 290° West 291 335 6,100 2,640 Climbing Boston Center
05:53AM 42.8135 -74.1941 281° West  Level FlightAware Approximate
05:53AM 42.7444 -73.9667 315° West 291 335 9,200  Level Boston Center
05:54AM 42.8328 -74.3298 281° West  Level FlightAware Approximate
05:54AM 42.8058 -74.0447 317° Northwest 291 335 11,300  Level Boston Center
05:55AM 42.8553 -74.4647 283° West  Level FlightAware Approximate
05:55AM 42.8756 -74.1286 319° Northwest 325 374 13,000  Level Boston Center
05:56AM 42.9694 -74.2589 315° West 362 417 15,300 2,100 Climbing Boston Center
05:57AM 42.9858 -74.3986 279° West 360 414 17,200 1,500 Climbing Boston Center
05:58AM 43.0000 -74.5408 278° West 379 436 18,300 1,080 Climbing Boston Center
05:59AM 43.0142 -74.6778 278° West 394 453 19,400 1,260 Climbing Boston Center
06:00AM 43.0297 -74.8261 278° West 399 459 20,900 1,380 Climbing Boston Center
06:01AM 43.0433 -74.9772 277° West 404 465 22,200 1,200 Climbing Boston Center
06:02AM 43.0586 -75.1314 278° West 410 472 23,300 1,020 Climbing Boston Center
06:03AM 43.0756 -75.2856 279° West 410 472 24,300 900 Climbing Boston Center
06:04AM 43.0903 -75.4425 277° West 410 472 25,200 840 Climbing Boston Center
06:05AM 43.1047 -75.5997 277° West 415 478 26,000 720 Climbing Boston Center
06:06AM 43.1208 -75.7656 278° West 427 491 26,700 600 Climbing Boston Center
06:07AM 43.1369 -75.9258 278° West 433 498 27,200 360 Climbing Boston Center
06:09AM 43.1542 -76.2969 274° West 429 494 28,000 240 Climbing Cleveland Center
06:10AM 43.1394 -76.4686 263° West 446 513 28,000  Level Cleveland Center
06:11AM 43.1225 -76.6378 262° West 451 519 28,000  Level Cleveland Center
06:12AM 43.1072 -76.8094 263° West 451 519 28,000  Level Cleveland Center
06:13AM 43.0919 -76.9808 263° West 451 519 28,000  Level Cleveland Center
06:14AM 43.0764 -77.1525 263° West 451 519 28,000  Level Cleveland Center
06:15AM 43.0603 -77.3239 263° West 451 519 28,000  Level Cleveland Center
06:16AM 43.0442 -77.4953 263° West 456 525 28,000  Level Cleveland Center
06:17AM 43.0300 -77.6664 264° West 456 525 28,000  Level Cleveland Center
06:18AM 43.0133 -77.8375 262° West 461 531 28,000  Level Cleveland Center
06:19AM 42.9942 -78.0058 261° West 461 531 28,000  Level Cleveland Center
06:20AM 42.9772 -78.1825 263° West 466 536 28,000  Level Cleveland Center
06:21AM 42.9617 -78.3506 263° West 466 536 28,000  Level Cleveland Center
06:22AM 42.9442 -78.5214 262° West 466 536 28,000  Level Cleveland Center
06:23AM 42.9242 -78.6922 261° West 466 536 28,000  Level Cleveland Center
06:24AM 42.8997 -78.8600 259° West 466 536 28,000  Level Cleveland Center
06:25AM 42.8750 -79.0308 259° West 466 536 28,000  Level Cleveland Center
06:26AM 42.8500 -79.2042 259° West 466 536 28,000  Level Cleveland Center
06:27AM 42.8269 -79.3717 259° West 466 536 28,000  Level Cleveland Center
06:28AM 42.8014 -79.5419 258° West 466 536 28,000  Level Cleveland Center
06:29AM 42.7758 -79.7119 258° West 466 536 28,000  Level Cleveland Center
06:30AM 42.7519 -79.8847 259° West 466 536 28,000  Level Cleveland Center
06:31AM 42.7444 -80.0461 266° West 471 542 28,000  Level Cleveland Center
06:32AM 42.7347 -80.2186 266° West 471 542 28,000  Level Cleveland Center
06:33AM 42.7269 -80.3911 267° West 466 536 28,000  Level Cleveland Center
06:34AM 42.7208 -80.5692 267° West 466 536 28,000 -180 Level Cleveland Center
06:35AM 42.7122 -80.7414 266° West 466 536 27,700 -720 Descending Cleveland Center
06:36AM 42.7014 -80.9194 265° West 466 536 26,600 -1,080 Descending Cleveland Center
06:37AM 42.6842 -81.1028 263° West 461 531 25,600 -1,020 Descending Cleveland Center
06:38AM 42.6625 -81.2692 260° West 461 531 24,600 -960 Descending Cleveland Center
06:39AM 42.6447 -81.4356 262° West 456 525 23,700 -1,020 Descending Cleveland Center
06:40AM 42.6225 -81.5961 259° West 451 519 22,600 -1,080 Descending Cleveland Center
06:41AM 42.6064 -81.7622 263° West 444 511 21,600 -1,200 Descending Cleveland Center
06:42AM 42.5836 -81.9225 259° West 444 511 20,200 -1,800 Descending Cleveland Center
06:43AM 42.5631 -82.0828 260° West 444 511 18,100 -2,100 Descending Cleveland Center
06:44AM 42.5464 -82.2347 262° West 427 491 16,100 -2,160 Descending Cleveland Center
06:45AM 42.5367 -82.3189 261° West 413 475 15,000 -2,280 Descending Cleveland Center
06:45AM 42.5272 -82.3892 260° West 434 499 13,800 -2,220 Descending Cleveland Center
06:46AM 42.5178 -82.4650 260° West 395 455 12,800 -1,800 Descending Cleveland Center
06:46AM 42.5061 -82.5350 257° West 415 478 12,000 -840 Descending Cleveland Center
06:47AM 42.4861 -82.6047 249° West 392 451 12,000 -540 Level Cleveland Center
06:47AM 42.4622 -82.6686 243° Southwest 396 456 11,500 -1,020 Descending Cleveland Center
06:48AM 42.4314 -82.7578 245° Southwest 355 409 10,800 -1,020 Descending Cleveland Center
06:48AM 42.4203 -82.7856 242° Southwest 376 433 10,500 -900 Descending Cleveland Center
06:49AM 42.4067 -82.8497 254° West 298 343 10,000 -1,200 Descending Cleveland Center
06:49AM 42.4014 -82.8944 261° West 335 386 9,300 -1,620 Descending Cleveland Center
06:50AM 42.3958 -82.9703 264° West 291 335 8,400 -1,500 Descending Cleveland Center
06:50AM 42.3931 -83.0067 264° West 310 357 7,800 -1,620 Descending Cleveland Center
06:51AM 42.3872 -83.0794 264° West 294 338 6,800 -1,620 Descending Cleveland Center
06:51AM 42.3825 -83.1103 258° West 297 342 6,200 -1,740 Descending Cleveland Center
06:52AM 42.3703 -83.1914 258° West 271 312 4,900 -1,800 Descending Cleveland Center
06:52AM 42.3614 -83.2078 234° Southwest 282 325 4,400 -1,860 Descending Cleveland Center
06:53AM 42.3353 -83.2544 233° Southwest 260 299 3,400 -1,740 Descending Cleveland Center
06:53AM 42.3078 -83.2703 203° Southwest 259 298 2,700 -1,380 Descending Cleveland Center
06:54AM 42.2761 -83.2942 209° Southwest 191 220 2,000 -1,200 Descending Cleveland Center